sensor_id;sensor_type;location;lat;lon;timestamp;P1;durP1;ratioP1;P2;durP2;ratioP2
54897;SDS011;40800;52.704;6.398;2023-12-20T00:00:53;39.60;;;36.60;;
54897;SDS011;40800;52.704;6.398;2023-12-20T00:03:19;40.03;;;36.88;;
54897;SDS011;40800;52.704;6.398;2023-12-20T00:05:45;40.42;;;37.22;;
54897;SDS011;40800;52.704;6.398;2023-12-20T00:08:11;40.30;;;37.27;;
54897;SDS011;40800;52.704;6.398;2023-12-20T00:10:36;41.53;;;38.15;;
54897;SDS011;40800;52.704;6.398;2023-12-20T00:13:02;40.88;;;37.85;;
54897;SDS011;40800;52.704;6.398;2023-12-20T00:15:27;40.40;;;37.53;;
54897;SDS011;40800;52.704;6.398;2023-12-20T00:17:53;40.33;;;37.38;;
54897;SDS011;40800;52.704;6.398;2023-12-20T00:20:18;38.90;;;36.08;;
54897;SDS011;40800;52.704;6.398;2023-12-20T00:29:40;40.80;;;37.00;;
54897;SDS011;40800;52.704;6.398;2023-12-20T00:32:07;39.25;;;36.20;;
54897;SDS011;40800;52.704;6.398;2023-12-20T00:34:33;40.08;;;36.97;;
54897;SDS011;40800;52.704;6.398;2023-12-20T00:36:59;41.35;;;37.72;;
54897;SDS011;40800;52.704;6.398;2023-12-20T00:39:24;40.33;;;37.13;;
54897;SDS011;40800;52.704;6.398;2023-12-20T00:41:50;41.08;;;37.45;;
54897;SDS011;40800;52.704;6.398;2023-12-20T00:44:15;40.90;;;37.80;;
54897;SDS011;40800;52.704;6.398;2023-12-20T00:46:41;40.13;;;37.15;;
54897;SDS011;40800;52.704;6.398;2023-12-20T00:49:06;39.63;;;36.50;;
54897;SDS011;40800;52.704;6.398;2023-12-20T00:51:32;38.58;;;36.08;;
54897;SDS011;40800;52.704;6.398;2023-12-20T00:53:57;40.33;;;37.25;;
54897;SDS011;40800;52.704;6.398;2023-12-20T00:56:23;40.63;;;37.33;;
54897;SDS011;40800;52.704;6.398;2023-12-20T00:58:48;38.67;;;36.13;;
54897;SDS011;40800;52.704;6.398;2023-12-20T01:01:15;38.17;;;35.55;;
54897;SDS011;40800;52.704;6.398;2023-12-20T01:03:40;39.40;;;36.13;;
54897;SDS011;40800;52.704;6.398;2023-12-20T01:06:06;38.00;;;35.50;;
54897;SDS011;40800;52.704;6.398;2023-12-20T01:08:31;37.88;;;35.08;;
54897;SDS011;40800;52.704;6.398;2023-12-20T01:10:57;39.97;;;36.47;;
54897;SDS011;40800;52.704;6.398;2023-12-20T01:13:22;38.38;;;35.42;;
54897;SDS011;40800;52.704;6.398;2023-12-20T01:15:48;39.45;;;36.33;;
54897;SDS011;40800;52.704;6.398;2023-12-20T01:18:14;38.65;;;35.72;;
54897;SDS011;40800;52.704;6.398;2023-12-20T01:20:40;39.67;;;36.22;;
54897;SDS011;40800;52.704;6.398;2023-12-20T01:23:05;41.47;;;38.00;;
54897;SDS011;40800;52.704;6.398;2023-12-20T01:25:31;41.13;;;37.55;;
54897;SDS011;40800;52.704;6.398;2023-12-20T01:27:56;39.50;;;36.40;;
54897;SDS011;40800;52.704;6.398;2023-12-20T01:30:22;40.13;;;36.92;;
54897;SDS011;40800;52.704;6.398;2023-12-20T01:32:47;38.88;;;35.72;;
54897;SDS011;40800;52.704;6.398;2023-12-20T01:35:13;39.90;;;36.50;;
54897;SDS011;40800;52.704;6.398;2023-12-20T01:37:39;40.37;;;37.30;;
54897;SDS011;40800;52.704;6.398;2023-12-20T01:40:05;41.10;;;37.83;;
54897;SDS011;40800;52.704;6.398;2023-12-20T01:42:31;41.35;;;37.78;;
54897;SDS011;40800;52.704;6.398;2023-12-20T01:44:56;40.88;;;37.28;;
54897;SDS011;40800;52.704;6.398;2023-12-20T01:47:22;40.88;;;37.60;;
54897;SDS011;40800;52.704;6.398;2023-12-20T01:49:48;40.95;;;37.25;;
54897;SDS011;40800;52.704;6.398;2023-12-20T01:52:14;41.80;;;38.10;;
54897;SDS011;40800;52.704;6.398;2023-12-20T01:54:40;40.42;;;37.13;;
54897;SDS011;40800;52.704;6.398;2023-12-20T01:57:07;41.38;;;37.95;;
54897;SDS011;40800;52.704;6.398;2023-12-20T01:59:33;40.45;;;37.38;;
54897;SDS011;40800;52.704;6.398;2023-12-20T02:02:00;40.47;;;36.92;;
54897;SDS011;40800;52.704;6.398;2023-12-20T02:04:25;40.03;;;36.95;;
54897;SDS011;40800;52.704;6.398;2023-12-20T02:06:52;41.00;;;37.75;;
54897;SDS011;40800;52.704;6.398;2023-12-20T02:09:18;39.80;;;36.73;;
54897;SDS011;40800;52.704;6.398;2023-12-20T02:11:44;40.78;;;37.22;;
54897;SDS011;40800;52.704;6.398;2023-12-20T02:14:09;39.88;;;36.80;;
54897;SDS011;40800;52.704;6.398;2023-12-20T02:16:35;41.05;;;38.25;;
54897;SDS011;40800;52.704;6.398;2023-12-20T02:19:01;41.45;;;37.88;;
54897;SDS011;40800;52.704;6.398;2023-12-20T02:21:33;40.03;;;37.00;;
54897;SDS011;40800;52.704;6.398;2023-12-20T02:24:01;40.10;;;37.00;;
54897;SDS011;40800;52.704;6.398;2023-12-20T02:26:27;38.90;;;36.20;;
54897;SDS011;40800;52.704;6.398;2023-12-20T02:28:53;37.95;;;35.13;;
54897;SDS011;40800;52.704;6.398;2023-12-20T02:31:23;38.40;;;35.47;;
54897;SDS011;40800;52.704;6.398;2023-12-20T02:33:48;38.78;;;35.67;;
54897;SDS011;40800;52.704;6.398;2023-12-20T02:36:14;39.20;;;35.95;;
54897;SDS011;40800;52.704;6.398;2023-12-20T02:38:40;41.03;;;37.30;;
54897;SDS011;40800;52.704;6.398;2023-12-20T02:41:05;40.42;;;36.88;;
54897;SDS011;40800;52.704;6.398;2023-12-20T02:43:31;40.45;;;37.20;;
54897;SDS011;40800;52.704;6.398;2023-12-20T02:45:56;39.85;;;36.70;;
54897;SDS011;40800;52.704;6.398;2023-12-20T02:48:22;40.70;;;37.47;;
54897;SDS011;40800;52.704;6.398;2023-12-20T02:50:47;40.78;;;37.50;;
54897;SDS011;40800;52.704;6.398;2023-12-20T02:53:14;40.78;;;37.50;;
54897;SDS011;40800;52.704;6.398;2023-12-20T02:55:40;41.35;;;37.58;;
54897;SDS011;40800;52.704;6.398;2023-12-20T02:58:05;42.20;;;38.75;;
54897;SDS011;40800;52.704;6.398;2023-12-20T03:00:31;40.92;;;37.67;;
54897;SDS011;40800;52.704;6.398;2023-12-20T03:02:56;41.22;;;37.70;;
54897;SDS011;40800;52.704;6.398;2023-12-20T03:05:24;41.95;;;37.92;;
54897;SDS011;40800;52.704;6.398;2023-12-20T03:07:50;42.45;;;38.35;;
54897;SDS011;40800;52.704;6.398;2023-12-20T03:10:16;41.22;;;37.53;;
54897;SDS011;40800;52.704;6.398;2023-12-20T03:12:41;42.53;;;38.08;;
54897;SDS011;40800;52.704;6.398;2023-12-20T03:15:07;42.70;;;38.67;;
54897;SDS011;40800;52.704;6.398;2023-12-20T03:17:33;43.17;;;38.88;;
54897;SDS011;40800;52.704;6.398;2023-12-20T03:19:58;43.28;;;39.10;;
54897;SDS011;40800;52.704;6.398;2023-12-20T03:22:24;42.38;;;38.60;;
54897;SDS011;40800;52.704;6.398;2023-12-20T03:24:49;42.97;;;38.97;;
54897;SDS011;40800;52.704;6.398;2023-12-20T03:27:15;43.70;;;39.45;;
54897;SDS011;40800;52.704;6.398;2023-12-20T03:29:40;42.63;;;38.95;;
54897;SDS011;40800;52.704;6.398;2023-12-20T03:32:06;42.33;;;38.75;;
54897;SDS011;40800;52.704;6.398;2023-12-20T03:34:33;43.20;;;38.88;;
54897;SDS011;40800;52.704;6.398;2023-12-20T03:36:59;43.65;;;39.13;;
54897;SDS011;40800;52.704;6.398;2023-12-20T03:39:24;44.47;;;40.17;;
54897;SDS011;40800;52.704;6.398;2023-12-20T03:41:50;44.75;;;40.38;;
54897;SDS011;40800;52.704;6.398;2023-12-20T03:44:15;44.55;;;40.28;;
54897;SDS011;40800;52.704;6.398;2023-12-20T03:46:41;44.80;;;40.15;;
54897;SDS011;40800;52.704;6.398;2023-12-20T03:49:06;46.33;;;41.90;;
54897;SDS011;40800;52.704;6.398;2023-12-20T03:51:32;48.55;;;41.42;;
54897;SDS011;40800;52.704;6.398;2023-12-20T03:53:57;44.35;;;40.22;;
54897;SDS011;40800;52.704;6.398;2023-12-20T03:56:23;45.80;;;41.50;;
54897;SDS011;40800;52.704;6.398;2023-12-20T03:58:48;45.33;;;41.42;;
54897;SDS011;40800;52.704;6.398;2023-12-20T04:01:14;46.10;;;41.70;;
54897;SDS011;40800;52.704;6.398;2023-12-20T04:03:39;45.78;;;41.40;;
54897;SDS011;40800;52.704;6.398;2023-12-20T04:06:05;45.00;;;40.70;;
54897;SDS011;40800;52.704;6.398;2023-12-20T04:08:31;44.55;;;40.55;;
54897;SDS011;40800;52.704;6.398;2023-12-20T04:10:56;43.88;;;40.22;;
54897;SDS011;40800;52.704;6.398;2023-12-20T04:13:22;44.22;;;40.05;;
54897;SDS011;40800;52.704;6.398;2023-12-20T04:15:47;44.40;;;40.05;;
54897;SDS011;40800;52.704;6.398;2023-12-20T04:18:15;44.13;;;39.67;;
54897;SDS011;40800;52.704;6.398;2023-12-20T04:20:40;45.35;;;41.28;;
54897;SDS011;40800;52.704;6.398;2023-12-20T04:23:06;43.53;;;39.42;;
54897;SDS011;40800;52.704;6.398;2023-12-20T04:25:32;43.33;;;39.40;;
54897;SDS011;40800;52.704;6.398;2023-12-20T04:27:57;44.15;;;40.22;;
54897;SDS011;40800;52.704;6.398;2023-12-20T04:30:23;43.90;;;39.53;;
54897;SDS011;40800;52.704;6.398;2023-12-20T04:32:48;45.33;;;40.22;;
54897;SDS011;40800;52.704;6.398;2023-12-20T04:35:14;43.35;;;39.25;;
54897;SDS011;40800;52.704;6.398;2023-12-20T04:37:39;43.78;;;39.90;;
54897;SDS011;40800;52.704;6.398;2023-12-20T04:40:05;44.25;;;40.15;;
54897;SDS011;40800;52.704;6.398;2023-12-20T04:42:32;42.03;;;38.20;;
54897;SDS011;40800;52.704;6.398;2023-12-20T04:44:58;43.80;;;39.65;;
54897;SDS011;40800;52.704;6.398;2023-12-20T04:47:23;42.63;;;38.50;;
54897;SDS011;40800;52.704;6.398;2023-12-20T04:49:49;43.00;;;38.65;;
54897;SDS011;40800;52.704;6.398;2023-12-20T04:52:14;43.30;;;39.05;;
54897;SDS011;40800;52.704;6.398;2023-12-20T04:54:40;43.40;;;39.45;;
54897;SDS011;40800;52.704;6.398;2023-12-20T04:57:05;42.00;;;38.10;;
54897;SDS011;40800;52.704;6.398;2023-12-20T04:59:31;43.10;;;39.35;;
54897;SDS011;40800;52.704;6.398;2023-12-20T05:01:56;43.72;;;39.80;;
54897;SDS011;40800;52.704;6.398;2023-12-20T05:04:22;43.42;;;39.40;;
54897;SDS011;40800;52.704;6.398;2023-12-20T05:06:48;44.00;;;39.78;;
54897;SDS011;40800;52.704;6.398;2023-12-20T05:09:15;45.65;;;41.22;;
54897;SDS011;40800;52.704;6.398;2023-12-20T05:11:40;43.25;;;38.95;;
54897;SDS011;40800;52.704;6.398;2023-12-20T05:14:06;42.60;;;39.05;;
54897;SDS011;40800;52.704;6.398;2023-12-20T05:16:32;44.10;;;39.73;;
54897;SDS011;40800;52.704;6.398;2023-12-20T05:18:57;45.92;;;41.33;;
54897;SDS011;40800;52.704;6.398;2023-12-20T05:21:25;47.47;;;42.65;;
54897;SDS011;40800;52.704;6.398;2023-12-20T05:23:51;45.70;;;41.58;;
54897;SDS011;40800;52.704;6.398;2023-12-20T05:26:16;45.72;;;41.10;;
54897;SDS011;40800;52.704;6.398;2023-12-20T05:28:42;45.28;;;40.78;;
54897;SDS011;40800;52.704;6.398;2023-12-20T05:31:07;45.97;;;41.20;;
54897;SDS011;40800;52.704;6.398;2023-12-20T05:33:34;44.92;;;40.75;;
54897;SDS011;40800;52.704;6.398;2023-12-20T05:35:59;43.92;;;39.95;;
54897;SDS011;40800;52.704;6.398;2023-12-20T05:38:25;44.92;;;40.22;;
54897;SDS011;40800;52.704;6.398;2023-12-20T05:40:51;43.97;;;40.17;;
54897;SDS011;40800;52.704;6.398;2023-12-20T05:43:16;44.60;;;40.78;;
54897;SDS011;40800;52.704;6.398;2023-12-20T05:45:42;43.47;;;39.05;;
54897;SDS011;40800;52.704;6.398;2023-12-20T05:48:07;42.95;;;39.05;;
54897;SDS011;40800;52.704;6.398;2023-12-20T05:50:33;43.10;;;39.38;;
54897;SDS011;40800;52.704;6.398;2023-12-20T05:52:59;43.75;;;39.95;;
54897;SDS011;40800;52.704;6.398;2023-12-20T05:55:25;42.50;;;38.50;;
54897;SDS011;40800;52.704;6.398;2023-12-20T05:57:51;41.55;;;37.95;;
54897;SDS011;40800;52.704;6.398;2023-12-20T06:00:16;43.63;;;39.50;;
54897;SDS011;40800;52.704;6.398;2023-12-20T06:02:42;42.35;;;38.85;;
54897;SDS011;40800;52.704;6.398;2023-12-20T06:05:08;44.87;;;40.67;;
54897;SDS011;40800;52.704;6.398;2023-12-20T06:07:34;43.35;;;39.70;;
54897;SDS011;40800;52.704;6.398;2023-12-20T06:09:59;45.15;;;41.03;;
54897;SDS011;40800;52.704;6.398;2023-12-20T06:12:25;43.80;;;40.05;;
54897;SDS011;40800;52.704;6.398;2023-12-20T06:14:52;43.90;;;39.85;;
54897;SDS011;40800;52.704;6.398;2023-12-20T06:17:18;44.15;;;40.00;;
54897;SDS011;40800;52.704;6.398;2023-12-20T06:19:43;44.33;;;40.38;;
54897;SDS011;40800;52.704;6.398;2023-12-20T06:22:10;42.72;;;38.83;;
54897;SDS011;40800;52.704;6.398;2023-12-20T06:24:36;46.65;;;42.45;;
54897;SDS011;40800;52.704;6.398;2023-12-20T06:27:01;43.78;;;39.90;;
54897;SDS011;40800;52.704;6.398;2023-12-20T06:29:27;45.20;;;40.80;;
54897;SDS011;40800;52.704;6.398;2023-12-20T06:31:53;43.38;;;39.17;;
54897;SDS011;40800;52.704;6.398;2023-12-20T06:34:18;44.50;;;40.28;;
54897;SDS011;40800;52.704;6.398;2023-12-20T06:36:44;42.78;;;38.85;;
54897;SDS011;40800;52.704;6.398;2023-12-20T06:39:10;42.05;;;38.53;;
54897;SDS011;40800;52.704;6.398;2023-12-20T06:41:37;42.33;;;38.50;;
54897;SDS011;40800;52.704;6.398;2023-12-20T06:44:03;42.28;;;38.65;;
54897;SDS011;40800;52.704;6.398;2023-12-20T06:46:29;40.88;;;37.25;;
54897;SDS011;40800;52.704;6.398;2023-12-20T06:48:54;43.10;;;39.08;;
54897;SDS011;40800;52.704;6.398;2023-12-20T06:51:20;42.13;;;38.63;;
54897;SDS011;40800;52.704;6.398;2023-12-20T06:53:45;42.55;;;38.53;;
54897;SDS011;40800;52.704;6.398;2023-12-20T06:56:11;42.17;;;38.72;;
54897;SDS011;40800;52.704;6.398;2023-12-20T06:58:37;43.93;;;39.57;;
54897;SDS011;40800;52.704;6.398;2023-12-20T07:01:03;44.13;;;40.13;;
54897;SDS011;40800;52.704;6.398;2023-12-20T07:03:29;43.53;;;40.03;;
54897;SDS011;40800;52.704;6.398;2023-12-20T07:05:55;43.80;;;40.03;;
54897;SDS011;40800;52.704;6.398;2023-12-20T07:08:21;42.92;;;39.22;;
54897;SDS011;40800;52.704;6.398;2023-12-20T07:10:46;43.20;;;39.45;;
54897;SDS011;40800;52.704;6.398;2023-12-20T07:13:12;43.15;;;39.47;;
54897;SDS011;40800;52.704;6.398;2023-12-20T07:15:38;41.75;;;38.05;;
54897;SDS011;40800;52.704;6.398;2023-12-20T07:18:03;40.60;;;36.95;;
54897;SDS011;40800;52.704;6.398;2023-12-20T07:20:30;40.13;;;36.72;;
54897;SDS011;40800;52.704;6.398;2023-12-20T07:22:56;41.15;;;37.83;;
54897;SDS011;40800;52.704;6.398;2023-12-20T07:25:21;40.15;;;36.55;;
54897;SDS011;40800;52.704;6.398;2023-12-20T07:27:47;39.85;;;35.97;;
54897;SDS011;40800;52.704;6.398;2023-12-20T07:30:12;41.30;;;37.50;;
54897;SDS011;40800;52.704;6.398;2023-12-20T07:32:38;41.63;;;37.85;;
54897;SDS011;40800;52.704;6.398;2023-12-20T07:35:04;41.05;;;37.40;;
54897;SDS011;40800;52.704;6.398;2023-12-20T07:37:30;40.15;;;35.85;;
54897;SDS011;40800;52.704;6.398;2023-12-20T07:39:56;40.90;;;37.33;;
54897;SDS011;40800;52.704;6.398;2023-12-20T07:42:21;42.85;;;38.38;;
54897;SDS011;40800;52.704;6.398;2023-12-20T07:44:47;43.28;;;38.97;;
54897;SDS011;40800;52.704;6.398;2023-12-20T07:47:13;44.65;;;39.95;;
54897;SDS011;40800;52.704;6.398;2023-12-20T07:49:41;42.60;;;38.67;;
54897;SDS011;40800;52.704;6.398;2023-12-20T07:52:07;39.67;;;36.33;;
54897;SDS011;40800;52.704;6.398;2023-12-20T07:54:33;40.42;;;37.03;;
54897;SDS011;40800;52.704;6.398;2023-12-20T07:56:58;44.00;;;40.22;;
54897;SDS011;40800;52.704;6.398;2023-12-20T07:59:24;44.17;;;40.00;;
54897;SDS011;40800;52.704;6.398;2023-12-20T08:01:50;44.15;;;40.05;;
54897;SDS011;40800;52.704;6.398;2023-12-20T08:04:15;43.00;;;39.17;;
54897;SDS011;40800;52.704;6.398;2023-12-20T08:06:41;44.92;;;40.75;;
54897;SDS011;40800;52.704;6.398;2023-12-20T08:09:06;46.97;;;42.83;;
54897;SDS011;40800;52.704;6.398;2023-12-20T08:11:32;43.47;;;39.05;;
54897;SDS011;40800;52.704;6.398;2023-12-20T08:13:57;42.90;;;39.00;;
54897;SDS011;40800;52.704;6.398;2023-12-20T08:16:23;44.67;;;40.80;;
54897;SDS011;40800;52.704;6.398;2023-12-20T08:18:48;43.15;;;38.97;;
54897;SDS011;40800;52.704;6.398;2023-12-20T08:21:15;42.33;;;38.53;;
54897;SDS011;40800;52.704;6.398;2023-12-20T08:23:40;42.13;;;38.20;;
54897;SDS011;40800;52.704;6.398;2023-12-20T08:26:06;44.30;;;39.90;;
54897;SDS011;40800;52.704;6.398;2023-12-20T08:28:32;44.87;;;40.97;;
54897;SDS011;40800;52.704;6.398;2023-12-20T08:30:58;52.80;;;48.50;;
54897;SDS011;40800;52.704;6.398;2023-12-20T08:33:24;44.27;;;40.07;;
54897;SDS011;40800;52.704;6.398;2023-12-20T08:35:50;50.53;;;45.75;;
54897;SDS011;40800;52.704;6.398;2023-12-20T08:38:16;44.78;;;40.25;;
54897;SDS011;40800;52.704;6.398;2023-12-20T08:40:42;42.63;;;38.85;;
54897;SDS011;40800;52.704;6.398;2023-12-20T08:43:08;41.58;;;37.90;;
54897;SDS011;40800;52.704;6.398;2023-12-20T08:45:34;41.08;;;36.72;;
54897;SDS011;40800;52.704;6.398;2023-12-20T08:47:59;40.58;;;37.22;;
54897;SDS011;40800;52.704;6.398;2023-12-20T08:50:25;54.08;;;49.47;;
54897;SDS011;40800;52.704;6.398;2023-12-20T08:52:51;41.22;;;37.05;;
54897;SDS011;40800;52.704;6.398;2023-12-20T08:55:16;40.20;;;36.47;;
54897;SDS011;40800;52.704;6.398;2023-12-20T08:57:43;38.85;;;35.30;;
54897;SDS011;40800;52.704;6.398;2023-12-20T09:00:09;39.85;;;36.15;;
54897;SDS011;40800;52.704;6.398;2023-12-20T09:02:35;39.45;;;35.42;;
54897;SDS011;40800;52.704;6.398;2023-12-20T09:05:01;38.92;;;35.60;;
54897;SDS011;40800;52.704;6.398;2023-12-20T09:07:27;38.20;;;34.90;;
54897;SDS011;40800;52.704;6.398;2023-12-20T09:09:55;40.05;;;35.80;;
54897;SDS011;40800;52.704;6.398;2023-12-20T09:12:21;37.50;;;33.97;;
54897;SDS011;40800;52.704;6.398;2023-12-20T09:14:47;37.97;;;34.10;;
54897;SDS011;40800;52.704;6.398;2023-12-20T09:17:14;36.58;;;33.00;;
54897;SDS011;40800;52.704;6.398;2023-12-20T09:19:41;36.65;;;32.75;;
54897;SDS011;40800;52.704;6.398;2023-12-20T09:22:06;35.03;;;31.75;;
54897;SDS011;40800;52.704;6.398;2023-12-20T09:24:32;35.25;;;32.05;;
54897;SDS011;40800;52.704;6.398;2023-12-20T09:26:58;34.42;;;31.08;;
54897;SDS011;40800;52.704;6.398;2023-12-20T09:29:23;35.53;;;31.77;;
54897;SDS011;40800;52.704;6.398;2023-12-20T09:31:49;32.63;;;29.63;;
54897;SDS011;40800;52.704;6.398;2023-12-20T09:34:15;32.47;;;29.58;;
54897;SDS011;40800;52.704;6.398;2023-12-20T09:36:42;33.30;;;30.17;;
54897;SDS011;40800;52.704;6.398;2023-12-20T09:39:15;33.95;;;30.50;;
54897;SDS011;40800;52.704;6.398;2023-12-20T09:41:54;34.55;;;31.25;;
54897;SDS011;40800;52.704;6.398;2023-12-20T09:44:26;34.83;;;31.17;;
54897;SDS011;40800;52.704;6.398;2023-12-20T09:46:51;34.15;;;30.77;;
54897;SDS011;40800;52.704;6.398;2023-12-20T09:49:19;32.10;;;29.30;;
54897;SDS011;40800;52.704;6.398;2023-12-20T09:51:52;33.93;;;30.70;;
54897;SDS011;40800;52.704;6.398;2023-12-20T09:54:18;33.15;;;29.65;;
54897;SDS011;40800;52.704;6.398;2023-12-20T09:56:45;33.40;;;29.75;;
54897;SDS011;40800;52.704;6.398;2023-12-20T09:59:12;31.92;;;29.15;;
54897;SDS011;40800;52.704;6.398;2023-12-20T10:01:41;31.30;;;28.42;;
54897;SDS011;40800;52.704;6.398;2023-12-20T10:04:08;32.78;;;29.50;;
54897;SDS011;40800;52.704;6.398;2023-12-20T10:06:37;31.35;;;28.90;;
54897;SDS011;40800;52.704;6.398;2023-12-20T10:09:03;28.20;;;25.98;;
54897;SDS011;40800;52.704;6.398;2023-12-20T10:11:29;28.02;;;26.05;;
54897;SDS011;40800;52.704;6.398;2023-12-20T10:14:00;28.70;;;26.63;;
54897;SDS011;40800;52.704;6.398;2023-12-20T10:16:27;26.70;;;24.98;;
54897;SDS011;40800;52.704;6.398;2023-12-20T10:18:56;28.10;;;26.20;;
54897;SDS011;40800;52.704;6.398;2023-12-20T10:21:22;27.77;;;25.92;;
54897;SDS011;40800;52.704;6.398;2023-12-20T10:23:51;29.83;;;27.35;;
54897;SDS011;40800;52.704;6.398;2023-12-20T10:26:23;29.38;;;27.20;;
54897;SDS011;40800;52.704;6.398;2023-12-20T10:28:50;30.70;;;28.60;;
54897;SDS011;40800;52.704;6.398;2023-12-20T10:31:31;31.40;;;29.13;;
54897;SDS011;40800;52.704;6.398;2023-12-20T10:34:00;31.45;;;29.40;;
54897;SDS011;40800;52.704;6.398;2023-12-20T10:36:28;32.60;;;30.80;;
54897;SDS011;40800;52.704;6.398;2023-12-20T10:38:54;33.35;;;31.40;;
54897;SDS011;40800;52.704;6.398;2023-12-20T10:41:26;34.15;;;31.85;;
54897;SDS011;40800;52.704;6.398;2023-12-20T10:44:00;34.17;;;32.20;;
54897;SDS011;40800;52.704;6.398;2023-12-20T10:46:26;33.90;;;31.95;;
54897;SDS011;40800;52.704;6.398;2023-12-20T10:48:58;34.58;;;32.42;;
54897;SDS011;40800;52.704;6.398;2023-12-20T10:51:26;34.08;;;32.08;;
54897;SDS011;40800;52.704;6.398;2023-12-20T10:53:54;34.55;;;32.30;;
54897;SDS011;40800;52.704;6.398;2023-12-20T10:56:20;36.40;;;34.10;;
54897;SDS011;40800;52.704;6.398;2023-12-20T10:58:48;34.85;;;32.85;;
54897;SDS011;40800;52.704;6.398;2023-12-20T11:01:15;35.55;;;33.22;;
54897;SDS011;40800;52.704;6.398;2023-12-20T11:03:48;35.67;;;33.40;;
54897;SDS011;40800;52.704;6.398;2023-12-20T11:09:13;36.30;;;33.88;;
54897;SDS011;40800;52.704;6.398;2023-12-20T11:14:35;37.33;;;34.85;;
54897;SDS011;40800;52.704;6.398;2023-12-20T11:17:15;38.35;;;35.83;;
54897;SDS011;40800;52.704;6.398;2023-12-20T11:22:21;38.45;;;35.88;;
54897;SDS011;40800;52.704;6.398;2023-12-20T11:24:47;39.80;;;37.10;;
54897;SDS011;40800;52.704;6.398;2023-12-20T11:27:14;40.00;;;37.55;;
54897;SDS011;40800;52.704;6.398;2023-12-20T11:29:40;41.07;;;38.40;;
54897;SDS011;40800;52.704;6.398;2023-12-20T11:34:54;40.58;;;37.78;;
54897;SDS011;40800;52.704;6.398;2023-12-20T11:37:30;41.03;;;38.05;;
54897;SDS011;40800;52.704;6.398;2023-12-20T11:40:02;39.20;;;36.65;;
54897;SDS011;40800;52.704;6.398;2023-12-20T11:42:37;39.47;;;36.90;;
54897;SDS011;40800;52.704;6.398;2023-12-20T11:45:04;38.75;;;36.25;;
54897;SDS011;40800;52.704;6.398;2023-12-20T11:47:30;39.00;;;36.45;;
54897;SDS011;40800;52.704;6.398;2023-12-20T11:49:56;39.63;;;37.33;;
54897;SDS011;40800;52.704;6.398;2023-12-20T11:52:22;38.75;;;36.35;;
54897;SDS011;40800;52.704;6.398;2023-12-20T11:54:48;39.17;;;36.67;;
54897;SDS011;40800;52.704;6.398;2023-12-20T11:57:13;38.13;;;35.88;;
54897;SDS011;40800;52.704;6.398;2023-12-20T11:59:39;39.50;;;36.88;;
54897;SDS011;40800;52.704;6.398;2023-12-20T12:02:05;39.25;;;36.72;;
54897;SDS011;40800;52.704;6.398;2023-12-20T12:04:31;38.88;;;36.38;;
54897;SDS011;40800;52.704;6.398;2023-12-20T12:06:56;38.47;;;36.10;;
54897;SDS011;40800;52.704;6.398;2023-12-20T12:09:22;37.70;;;35.22;;
54897;SDS011;40800;52.704;6.398;2023-12-20T12:11:47;38.35;;;36.13;;
54897;SDS011;40800;52.704;6.398;2023-12-20T12:14:13;37.63;;;35.53;;
54897;SDS011;40800;52.704;6.398;2023-12-20T12:16:39;39.30;;;36.80;;
54897;SDS011;40800;52.704;6.398;2023-12-20T12:19:06;39.45;;;36.90;;
54897;SDS011;40800;52.704;6.398;2023-12-20T12:21:31;38.83;;;36.35;;
54897;SDS011;40800;52.704;6.398;2023-12-20T12:24:07;40.03;;;37.38;;
54897;SDS011;40800;52.704;6.398;2023-12-20T12:26:36;40.38;;;37.70;;
54897;SDS011;40800;52.704;6.398;2023-12-20T12:29:02;40.35;;;37.95;;
54897;SDS011;40800;52.704;6.398;2023-12-20T12:31:28;41.40;;;38.80;;
54897;SDS011;40800;52.704;6.398;2023-12-20T12:33:55;40.50;;;37.55;;
54897;SDS011;40800;52.704;6.398;2023-12-20T12:41:04;38.30;;;36.05;;
54897;SDS011;40800;52.704;6.398;2023-12-20T12:43:31;40.30;;;37.50;;
54897;SDS011;40800;52.704;6.398;2023-12-20T12:45:57;40.10;;;37.38;;
54897;SDS011;40800;52.704;6.398;2023-12-20T12:48:22;42.10;;;38.85;;
54897;SDS011;40800;52.704;6.398;2023-12-20T12:50:48;41.03;;;38.42;;
54897;SDS011;40800;52.704;6.398;2023-12-20T12:53:13;40.85;;;38.10;;
54897;SDS011;40800;52.704;6.398;2023-12-20T12:55:39;39.00;;;36.42;;
54897;SDS011;40800;52.704;6.398;2023-12-20T12:58:04;39.25;;;36.75;;
54897;SDS011;40800;52.704;6.398;2023-12-20T13:00:30;39.80;;;36.83;;
54897;SDS011;40800;52.704;6.398;2023-12-20T13:02:56;39.20;;;36.70;;
54897;SDS011;40800;52.704;6.398;2023-12-20T13:05:21;40.45;;;38.05;;
54897;SDS011;40800;52.704;6.398;2023-12-20T13:07:47;37.15;;;34.63;;
54897;SDS011;40800;52.704;6.398;2023-12-20T13:10:12;38.38;;;35.78;;
54897;SDS011;40800;52.704;6.398;2023-12-20T13:12:41;39.05;;;36.10;;
54897;SDS011;40800;52.704;6.398;2023-12-20T13:15:07;38.10;;;35.28;;
54897;SDS011;40800;52.704;6.398;2023-12-20T13:17:33;37.95;;;35.38;;
54897;SDS011;40800;52.704;6.398;2023-12-20T13:19:59;48.53;;;45.28;;
54897;SDS011;40800;52.704;6.398;2023-12-20T13:22:25;36.88;;;34.38;;
54897;SDS011;40800;52.704;6.398;2023-12-20T13:24:50;37.75;;;35.22;;
54897;SDS011;40800;52.704;6.398;2023-12-20T13:27:16;37.55;;;35.05;;
54897;SDS011;40800;52.704;6.398;2023-12-20T13:29:41;38.60;;;35.95;;
54897;SDS011;40800;52.704;6.398;2023-12-20T13:32:07;38.40;;;35.83;;
54897;SDS011;40800;52.704;6.398;2023-12-20T13:34:32;37.40;;;35.08;;
54897;SDS011;40800;52.704;6.398;2023-12-20T13:36:58;37.88;;;35.55;;
54897;SDS011;40800;52.704;6.398;2023-12-20T13:39:24;38.28;;;35.85;;
54897;SDS011;40800;52.704;6.398;2023-12-20T13:41:49;37.95;;;35.28;;
54897;SDS011;40800;52.704;6.398;2023-12-20T13:44:15;37.83;;;35.45;;
54897;SDS011;40800;52.704;6.398;2023-12-20T13:46:41;38.70;;;36.15;;
54897;SDS011;40800;52.704;6.398;2023-12-20T13:49:06;38.60;;;35.60;;
54897;SDS011;40800;52.704;6.398;2023-12-20T13:51:32;37.83;;;35.22;;
54897;SDS011;40800;52.704;6.398;2023-12-20T13:53:58;37.90;;;35.17;;
54897;SDS011;40800;52.704;6.398;2023-12-20T13:56:24;36.55;;;33.97;;
54897;SDS011;40800;52.704;6.398;2023-12-20T13:58:50;37.45;;;34.58;;
54897;SDS011;40800;52.704;6.398;2023-12-20T14:01:15;38.80;;;36.03;;
54897;SDS011;40800;52.704;6.398;2023-12-20T14:03:41;38.72;;;35.83;;
54897;SDS011;40800;52.704;6.398;2023-12-20T14:06:07;40.30;;;37.38;;
54897;SDS011;40800;52.704;6.398;2023-12-20T14:08:33;41.13;;;38.05;;
54897;SDS011;40800;52.704;6.398;2023-12-20T14:10:58;41.08;;;38.03;;
54897;SDS011;40800;52.704;6.398;2023-12-20T14:13:26;41.20;;;38.22;;
54897;SDS011;40800;52.704;6.398;2023-12-20T14:15:51;40.67;;;37.65;;
54897;SDS011;40800;52.704;6.398;2023-12-20T14:18:19;41.42;;;38.30;;
54897;SDS011;40800;52.704;6.398;2023-12-20T14:20:44;41.03;;;37.90;;
54897;SDS011;40800;52.704;6.398;2023-12-20T14:23:12;70.72;;;66.28;;
54897;SDS011;40800;52.704;6.398;2023-12-20T14:25:39;43.58;;;39.95;;
54897;SDS011;40800;52.704;6.398;2023-12-20T14:28:06;44.22;;;40.53;;
54897;SDS011;40800;52.704;6.398;2023-12-20T14:30:32;44.10;;;40.50;;
54897;SDS011;40800;52.704;6.398;2023-12-20T14:32:57;43.88;;;39.88;;
54897;SDS011;40800;52.704;6.398;2023-12-20T14:35:23;273.95;;;54.13;;
54897;SDS011;40800;52.704;6.398;2023-12-20T14:37:49;98.75;;;44.15;;